sensor_id;sensor_type;location;lat;lon;timestamp;temperature;humidity
78297;DHT22;67555;47.660;19.622;2023-03-31T00:00:36;9.00;80.10
78297;DHT22;67555;47.660;19.622;2023-03-31T00:03:01;9.00;80.00
78297;DHT22;67555;47.660;19.622;2023-03-31T00:05:27;9.00;79.80
78297;DHT22;67555;47.660;19.622;2023-03-31T00:07:54;9.00;79.90
78297;DHT22;67555;47.660;19.622;2023-03-31T00:10:34;8.90;80.00
78297;DHT22;67555;47.660;19.622;2023-03-31T00:13:00;8.90;80.00
78297;DHT22;67555;47.660;19.622;2023-03-31T00:15:27;8.90;79.80
78297;DHT22;67555;47.660;19.622;2023-03-31T00:17:53;9.00;79.70
78297;DHT22;67555;47.660;19.622;2023-03-31T00:20:19;9.00;79.50
78297;DHT22;67555;47.660;19.622;2023-03-31T00:22:45;8.90;79.50
78297;DHT22;67555;47.660;19.622;2023-03-31T00:25:15;8.80;79.70
78297;DHT22;67555;47.660;19.622;2023-03-31T00:27:44;8.80;79.80
78297;DHT22;67555;47.660;19.622;2023-03-31T00:30:11;8.80;79.70
78297;DHT22;67555;47.660;19.622;2023-03-31T00:32:37;8.80;79.60
78297;DHT22;67555;47.660;19.622;2023-03-31T00:35:04;8.80;79.50
78297;DHT22;67555;47.660;19.622;2023-03-31T00:37:30;8.80;79.40
78297;DHT22;67555;47.660;19.622;2023-03-31T00:39:58;8.80;79.20
78297;DHT22;67555;47.660;19.622;2023-03-31T00:42:24;8.70;79.30
78297;DHT22;67555;47.660;19.622;2023-03-31T00:48:03;8.80;79.00
78297;DHT22;67555;47.660;19.622;2023-03-31T00:50:35;8.80;78.70
78297;DHT22;67555;47.660;19.622;2023-03-31T00:53:09;8.90;78.40
78297;DHT22;67555;47.660;19.622;2023-03-31T00:55:42;9.00;77.90
78297;DHT22;67555;47.660;19.622;2023-03-31T00:58:10;9.20;77.50
78297;DHT22;67555;47.660;19.622;2023-03-31T01:00:40;9.20;77.10
78297;DHT22;67555;47.660;19.622;2023-03-31T01:03:07;9.10;77.10
78297;DHT22;67555;47.660;19.622;2023-03-31T01:05:45;9.10;77.10
78297;DHT22;67555;47.660;19.622;2023-03-31T01:08:12;9.10;77.00
78297;DHT22;67555;47.660;19.622;2023-03-31T01:10:51;9.20;76.80
78297;DHT22;67555;47.660;19.622;2023-03-31T01:13:19;9.20;76.60
78297;DHT22;67555;47.660;19.622;2023-03-31T01:15:46;9.20;76.50
78297;DHT22;67555;47.660;19.622;2023-03-31T01:18:13;9.20;76.60
78297;DHT22;67555;47.660;19.622;2023-03-31T01:43:10;9.00;75.70
78297;DHT22;67555;47.660;19.622;2023-03-31T01:48:15;9.00;75.60
78297;DHT22;67555;47.660;19.622;2023-03-31T01:53:34;9.00;75.20
78297;DHT22;67555;47.660;19.622;2023-03-31T01:56:12;9.00;75.20
78297;DHT22;67555;47.660;19.622;2023-03-31T01:58:58;9.00;75.30
78297;DHT22;67555;47.660;19.622;2023-03-31T02:01:33;9.00;75.20
78297;DHT22;67555;47.660;19.622;2023-03-31T02:06:37;9.00;75.30
78297;DHT22;67555;47.660;19.622;2023-03-31T02:09:21;9.00;75.30
78297;DHT22;67555;47.660;19.622;2023-03-31T02:11:48;9.00;75.50
78297;DHT22;67555;47.660;19.622;2023-03-31T02:14:19;9.00;75.50
78297;DHT22;67555;47.660;19.622;2023-03-31T02:16:49;9.00;75.60
78297;DHT22;67555;47.660;19.622;2023-03-31T02:19:18;9.10;75.70
78297;DHT22;67555;47.660;19.622;2023-03-31T02:21:47;9.10;75.80
78297;DHT22;67555;47.660;19.622;2023-03-31T02:24:19;9.10;75.80
78297;DHT22;67555;47.660;19.622;2023-03-31T02:29:34;9.10;76.00
78297;DHT22;67555;47.660;19.622;2023-03-31T02:34:33;9.00;76.20
78297;DHT22;67555;47.660;19.622;2023-03-31T02:36:58;9.00;76.40
78297;DHT22;67555;47.660;19.622;2023-03-31T02:39:31;9.00;76.50
78297;DHT22;67555;47.660;19.622;2023-03-31T02:41:58;9.00;77.20
78297;DHT22;67555;47.660;19.622;2023-03-31T02:44:26;8.90;77.90
78297;DHT22;67555;47.660;19.622;2023-03-31T02:46:52;8.90;78.60
78297;DHT22;67555;47.660;19.622;2023-03-31T02:49:19;8.80;79.70
78297;DHT22;67555;47.660;19.622;2023-03-31T03:02:16;8.80;80.70
78297;DHT22;67555;47.660;19.622;2023-03-31T03:05:30;8.80;80.50
78297;DHT22;67555;47.660;19.622;2023-03-31T03:15:57;9.00;79.30
78297;DHT22;67555;47.660;19.622;2023-03-31T03:18:25;9.10;79.10
78297;DHT22;67555;47.660;19.622;2023-03-31T03:20:51;9.10;79.10
78297;DHT22;67555;47.660;19.622;2023-03-31T03:23:17;9.20;79.00
78297;DHT22;67555;47.660;19.622;2023-03-31T03:25:43;9.20;79.00
78297;DHT22;67555;47.660;19.622;2023-03-31T03:28:09;9.20;78.90
78297;DHT22;67555;47.660;19.622;2023-03-31T03:30:35;9.20;78.70
78297;DHT22;67555;47.660;19.622;2023-03-31T03:33:01;9.10;78.70
78297;DHT22;67555;47.660;19.622;2023-03-31T03:35:27;9.00;78.60
78297;DHT22;67555;47.660;19.622;2023-03-31T03:37:53;9.00;78.60
78297;DHT22;67555;47.660;19.622;2023-03-31T03:40:19;9.00;78.70
78297;DHT22;67555;47.660;19.622;2023-03-31T03:42:45;8.90;78.70
78297;DHT22;67555;47.660;19.622;2023-03-31T03:45:10;9.00;78.60
78297;DHT22;67555;47.660;19.622;2023-03-31T03:47:36;9.00;78.30
78297;DHT22;67555;47.660;19.622;2023-03-31T03:50:03;8.90;78.20
78297;DHT22;67555;47.660;19.622;2023-03-31T03:52:28;8.80;78.10
78297;DHT22;67555;47.660;19.622;2023-03-31T03:54:54;8.80;78.10
78297;DHT22;67555;47.660;19.622;2023-03-31T03:57:20;8.70;78.10
78297;DHT22;67555;47.660;19.622;2023-03-31T03:59:46;8.60;78.00
78297;DHT22;67555;47.660;19.622;2023-03-31T04:02:12;8.60;77.90
78297;DHT22;67555;47.660;19.622;2023-03-31T04:04:38;8.60;77.80
78297;DHT22;67555;47.660;19.622;2023-03-31T04:07:04;8.50;77.70
78297;DHT22;67555;47.660;19.622;2023-03-31T04:09:30;8.60;77.60
78297;DHT22;67555;47.660;19.622;2023-03-31T04:11:56;8.50;77.50
78297;DHT22;67555;47.660;19.622;2023-03-31T04:14:22;8.40;77.50
78297;DHT22;67555;47.660;19.622;2023-03-31T04:16:50;8.40;77.60
78297;DHT22;67555;47.660;19.622;2023-03-31T04:19:16;8.30;77.70
78297;DHT22;67555;47.660;19.622;2023-03-31T04:21:43;8.30;77.70
78297;DHT22;67555;47.660;19.622;2023-03-31T04:24:26;8.30;77.70
78297;DHT22;67555;47.660;19.622;2023-03-31T04:26:55;8.30;77.50
78297;DHT22;67555;47.660;19.622;2023-03-31T04:29:22;8.30;77.50
78297;DHT22;67555;47.660;19.622;2023-03-31T04:31:54;8.30;77.50
78297;DHT22;67555;47.660;19.622;2023-03-31T04:34:24;8.30;77.60
78297;DHT22;67555;47.660;19.622;2023-03-31T04:36:51;8.30;77.60
78297;DHT22;67555;47.660;19.622;2023-03-31T04:39:21;8.30;77.60
78297;DHT22;67555;47.660;19.622;2023-03-31T04:41:56;8.40;77.70
78297;DHT22;67555;47.660;19.622;2023-03-31T04:44:22;8.40;77.70
78297;DHT22;67555;47.660;19.622;2023-03-31T04:46:48;8.50;77.70
78297;DHT22;67555;47.660;19.622;2023-03-31T04:49:14;8.50;77.90
78297;DHT22;67555;47.660;19.622;2023-03-31T04:51:40;8.50;78.20
78297;DHT22;67555;47.660;19.622;2023-03-31T04:54:05;8.50;78.50
78297;DHT22;67555;47.660;19.622;2023-03-31T04:56:31;8.60;78.70
78297;DHT22;67555;47.660;19.622;2023-03-31T04:58:57;8.50;79.00
78297;DHT22;67555;47.660;19.622;2023-03-31T05:01:23;8.50;79.30
78297;DHT22;67555;47.660;19.622;2023-03-31T05:03:48;8.50;79.80
78297;DHT22;67555;47.660;19.622;2023-03-31T05:06:15;8.40;80.20
78297;DHT22;67555;47.660;19.622;2023-03-31T05:08:41;8.40;80.40
78297;DHT22;67555;47.660;19.622;2023-03-31T05:11:07;8.50;80.40
78297;DHT22;67555;47.660;19.622;2023-03-31T05:13:33;8.60;80.20
78297;DHT22;67555;47.660;19.622;2023-03-31T05:16:05;8.70;80.00
78297;DHT22;67555;47.660;19.622;2023-03-31T05:18:31;8.80;79.80
78297;DHT22;67555;47.660;19.622;2023-03-31T05:21:04;8.90;79.60
78297;DHT22;67555;47.660;19.622;2023-03-31T05:23:32;9.00;79.30
78297;DHT22;67555;47.660;19.622;2023-03-31T05:25:58;9.20;79.00
78297;DHT22;67555;47.660;19.622;2023-03-31T05:28:23;9.20;78.60
78297;DHT22;67555;47.660;19.622;2023-03-31T05:30:49;9.30;78.30
78297;DHT22;67555;47.660;19.622;2023-03-31T05:33:15;9.40;78.40
78297;DHT22;67555;47.660;19.622;2023-03-31T05:35:41;9.40;78.30
78297;DHT22;67555;47.660;19.622;2023-03-31T05:38:06;9.50;78.30
78297;DHT22;67555;47.660;19.622;2023-03-31T05:40:32;9.50;78.20
78297;DHT22;67555;47.660;19.622;2023-03-31T05:42:58;9.60;78.10
78297;DHT22;67555;47.660;19.622;2023-03-31T05:45:23;9.70;78.00
78297;DHT22;67555;47.660;19.622;2023-03-31T05:47:49;9.70;77.90
78297;DHT22;67555;47.660;19.622;2023-03-31T05:50:16;9.80;77.80
78297;DHT22;67555;47.660;19.622;2023-03-31T05:52:41;9.80;77.80
78297;DHT22;67555;47.660;19.622;2023-03-31T05:55:07;10.00;77.70
78297;DHT22;67555;47.660;19.622;2023-03-31T05:57:33;10.00;77.40
78297;DHT22;67555;47.660;19.622;2023-03-31T05:59:59;10.20;77.00
78297;DHT22;67555;47.660;19.622;2023-03-31T06:02:25;10.20;77.00
78297;DHT22;67555;47.660;19.622;2023-03-31T06:04:50;10.20;77.00
78297;DHT22;67555;47.660;19.622;2023-03-31T06:07:16;10.30;76.90
78297;DHT22;67555;47.660;19.622;2023-03-31T06:09:42;10.30;77.00
78297;DHT22;67555;47.660;19.622;2023-03-31T06:12:08;10.40;77.10
78297;DHT22;67555;47.660;19.622;2023-03-31T06:14:34;10.50;77.10
78297;DHT22;67555;47.660;19.622;2023-03-31T06:17:00;10.60;77.00
78297;DHT22;67555;47.660;19.622;2023-03-31T06:19:26;10.70;76.90
78297;DHT22;67555;47.660;19.622;2023-03-31T06:21:51;10.90;76.60
78297;DHT22;67555;47.660;19.622;2023-03-31T06:24:17;11.10;76.30
78297;DHT22;67555;47.660;19.622;2023-03-31T06:26:43;11.10;76.20
78297;DHT22;67555;47.660;19.622;2023-03-31T06:29:08;11.20;76.20
78297;DHT22;67555;47.660;19.622;2023-03-31T06:31:34;11.20;76.30
78297;DHT22;67555;47.660;19.622;2023-03-31T06:34:00;11.30;76.50
78297;DHT22;67555;47.660;19.622;2023-03-31T06:36:26;11.30;76.60
78297;DHT22;67555;47.660;19.622;2023-03-31T06:38:52;11.40;76.60
78297;DHT22;67555;47.660;19.622;2023-03-31T06:41:18;11.60;76.40
78297;DHT22;67555;47.660;19.622;2023-03-31T06:43:45;11.70;76.00
78297;DHT22;67555;47.660;19.622;2023-03-31T06:46:11;11.90;75.70
78297;DHT22;67555;47.660;19.622;2023-03-31T06:48:37;12.10;75.30
78297;DHT22;67555;47.660;19.622;2023-03-31T06:51:04;12.30;74.90
78297;DHT22;67555;47.660;19.622;2023-03-31T06:53:31;12.50;74.50
78297;DHT22;67555;47.660;19.622;2023-03-31T06:55:57;12.70;74.10
78297;DHT22;67555;47.660;19.622;2023-03-31T06:58:23;12.80;73.80
78297;DHT22;67555;47.660;19.622;2023-03-31T07:00:49;12.90;73.30
78297;DHT22;67555;47.660;19.622;2023-03-31T07:03:15;12.90;72.60
78297;DHT22;67555;47.660;19.622;2023-03-31T07:05:50;12.90;72.60
78297;DHT22;67555;47.660;19.622;2023-03-31T07:08:17;13.10;72.40
78297;DHT22;67555;47.660;19.622;2023-03-31T07:10:43;13.10;72.30
78297;DHT22;67555;47.660;19.622;2023-03-31T07:13:15;13.30;72.00
78297;DHT22;67555;47.660;19.622;2023-03-31T07:15:41;13.50;71.50
78297;DHT22;67555;47.660;19.622;2023-03-31T07:18:07;13.50;71.50
78297;DHT22;67555;47.660;19.622;2023-03-31T07:20:34;13.60;71.30
78297;DHT22;67555;47.660;19.622;2023-03-31T07:23:03;13.70;70.80
78297;DHT22;67555;47.660;19.622;2023-03-31T07:25:29;13.70;70.80
78297;DHT22;67555;47.660;19.622;2023-03-31T07:27:55;13.80;70.60
78297;DHT22;67555;47.660;19.622;2023-03-31T07:30:21;13.90;70.20
78297;DHT22;67555;47.660;19.622;2023-03-31T07:32:48;13.90;69.90
78297;DHT22;67555;47.660;19.622;2023-03-31T07:35:16;13.90;69.80
78297;DHT22;67555;47.660;19.622;2023-03-31T07:37:45;13.90;69.70
78297;DHT22;67555;47.660;19.622;2023-03-31T07:40:13;13.90;69.50
78297;DHT22;67555;47.660;19.622;2023-03-31T07:42:42;13.90;68.00
78297;DHT22;67555;47.660;19.622;2023-03-31T07:45:09;13.90;68.30
78297;DHT22;67555;47.660;19.622;2023-03-31T07:47:35;13.90;68.50
78297;DHT22;67555;47.660;19.622;2023-03-31T07:50:01;14.00;68.30
78297;DHT22;67555;47.660;19.622;2023-03-31T07:52:27;14.10;68.20
78297;DHT22;67555;47.660;19.622;2023-03-31T07:54:53;14.20;68.10
78297;DHT22;67555;47.660;19.622;2023-03-31T07:57:18;14.40;68.00
78297;DHT22;67555;47.660;19.622;2023-03-31T07:59:47;14.50;67.80
78297;DHT22;67555;47.660;19.622;2023-03-31T08:02:14;14.60;67.60
78297;DHT22;67555;47.660;19.622;2023-03-31T08:04:40;14.70;67.40
78297;DHT22;67555;47.660;19.622;2023-03-31T08:07:12;14.80;67.20
78297;DHT22;67555;47.660;19.622;2023-03-31T08:09:40;14.90;66.10
78297;DHT22;67555;47.660;19.622;2023-03-31T08:12:07;14.90;66.30
78297;DHT22;67555;47.660;19.622;2023-03-31T08:14:33;15.00;66.10
78297;DHT22;67555;47.660;19.622;2023-03-31T08:16:58;15.00;66.00
78297;DHT22;67555;47.660;19.622;2023-03-31T08:19:25;15.10;64.60
78297;DHT22;67555;47.660;19.622;2023-03-31T08:21:51;15.00;64.80
78297;DHT22;67555;47.660;19.622;2023-03-31T08:24:17;15.00;64.30
78297;DHT22;67555;47.660;19.622;2023-03-31T08:26:44;15.10;64.60
78297;DHT22;67555;47.660;19.622;2023-03-31T08:29:10;15.20;64.40
78297;DHT22;67555;47.660;19.622;2023-03-31T08:31:36;15.30;64.00
78297;DHT22;67555;47.660;19.622;2023-03-31T08:34:02;15.30;64.10
78297;DHT22;67555;47.660;19.622;2023-03-31T08:36:28;15.50;64.10
78297;DHT22;67555;47.660;19.622;2023-03-31T08:38:54;15.60;63.70
78297;DHT22;67555;47.660;19.622;2023-03-31T08:46:56;15.80;61.00
78297;DHT22;67555;47.660;19.622;2023-03-31T08:49:25;15.80;59.40
78297;DHT22;67555;47.660;19.622;2023-03-31T08:51:59;15.80;59.30
78297;DHT22;67555;47.660;19.622;2023-03-31T08:54:41;15.80;59.70
78297;DHT22;67555;47.660;19.622;2023-03-31T08:57:16;16.00;60.00
78297;DHT22;67555;47.660;19.622;2023-03-31T08:59:44;16.10;60.30
78297;DHT22;67555;47.660;19.622;2023-03-31T09:13:31;17.00;59.10
78297;DHT22;67555;47.660;19.622;2023-03-31T09:20:42;17.10;58.30
78297;DHT22;67555;47.660;19.622;2023-03-31T09:23:13;17.20;58.00
78297;DHT22;67555;47.660;19.622;2023-03-31T09:25:43;17.20;58.00
78297;DHT22;67555;47.660;19.622;2023-03-31T09:28:20;17.20;57.40
78297;DHT22;67555;47.660;19.622;2023-03-31T09:30:47;17.20;56.50
78297;DHT22;67555;47.660;19.622;2023-03-31T09:33:24;17.10;55.90
78297;DHT22;67555;47.660;19.622;2023-03-31T09:35:52;17.00;54.70
78297;DHT22;67555;47.660;19.622;2023-03-31T09:38:18;17.00;55.50
78297;DHT22;67555;47.660;19.622;2023-03-31T09:40:44;17.00;54.40
78297;DHT22;67555;47.660;19.622;2023-03-31T09:43:20;17.00;53.50
78297;DHT22;67555;47.660;19.622;2023-03-31T09:45:47;17.00;52.90
78297;DHT22;67555;47.660;19.622;2023-03-31T09:48:20;17.00;53.10
78297;DHT22;67555;47.660;19.622;2023-03-31T09:51:00;17.20;52.60
78297;DHT22;67555;47.660;19.622;2023-03-31T09:56:11;17.60;52.30
78297;DHT22;67555;47.660;19.622;2023-03-31T09:58:40;17.70;51.70
78297;DHT22;67555;47.660;19.622;2023-03-31T10:01:10;17.60;51.20
78297;DHT22;67555;47.660;19.622;2023-03-31T10:03:50;17.70;51.90
78297;DHT22;67555;47.660;19.622;2023-03-31T10:06:17;17.90;51.60
78297;DHT22;67555;47.660;19.622;2023-03-31T10:08:56;18.00;51.20
78297;DHT22;67555;47.660;19.622;2023-03-31T10:11:24;18.20;51.50
78297;DHT22;67555;47.660;19.622;2023-03-31T10:13:58;18.60;51.50
78297;DHT22;67555;47.660;19.622;2023-03-31T10:18:53;19.00;50.00
78297;DHT22;67555;47.660;19.622;2023-03-31T10:21:24;19.10;50.30
78297;DHT22;67555;47.660;19.622;2023-03-31T10:23:52;19.30;50.10
78297;DHT22;67555;47.660;19.622;2023-03-31T10:26:25;19.50;49.90
78297;DHT22;67555;47.660;19.622;2023-03-31T10:28:52;19.60;48.90
78297;DHT22;67555;47.660;19.622;2023-03-31T10:31:26;19.60;49.30
78297;DHT22;67555;47.660;19.622;2023-03-31T10:33:58;19.70;49.00
78297;DHT22;67555;47.660;19.622;2023-03-31T10:36:29;19.60;48.30
78297;DHT22;67555;47.660;19.622;2023-03-31T10:38:56;19.60;48.70
78297;DHT22;67555;47.660;19.622;2023-03-31T10:41:31;19.60;48.30
78297;DHT22;67555;47.660;19.622;2023-03-31T10:43:59;19.80;48.40
78297;DHT22;67555;47.660;19.622;2023-03-31T10:46:48;20.00;48.00
78297;DHT22;67555;47.660;19.622;2023-03-31T10:51:55;20.00;47.10
78297;DHT22;67555;47.660;19.622;2023-03-31T10:54:22;20.00;47.00
78297;DHT22;67555;47.660;19.622;2023-03-31T10:56:51;20.00;47.10
78297;DHT22;67555;47.660;19.622;2023-03-31T10:59:40;20.00;47.20
78297;DHT22;67555;47.660;19.622;2023-03-31T11:05:30;20.10;47.10
78297;DHT22;67555;47.660;19.622;2023-03-31T11:08:53;20.00;47.10
78297;DHT22;67555;47.660;19.622;2023-03-31T11:13:58;19.70;46.90
78297;DHT22;67555;47.660;19.622;2023-03-31T11:25:22;20.30;45.70
78297;DHT22;67555;47.660;19.622;2023-03-31T11:30:45;20.70;46.00
78297;DHT22;67555;47.660;19.622;2023-03-31T11:36:22;21.10;45.40
78297;DHT22;67555;47.660;19.622;2023-03-31T11:41:52;21.10;44.50
78297;DHT22;67555;47.660;19.622;2023-03-31T11:44:21;20.90;44.30
78297;DHT22;67555;47.660;19.622;2023-03-31T11:46:57;20.90;44.00
78297;DHT22;67555;47.660;19.622;2023-03-31T11:49:31;20.70;43.70
78297;DHT22;67555;47.660;19.622;2023-03-31T11:52:27;20.80;43.70
78297;DHT22;67555;47.660;19.622;2023-03-31T11:57:36;20.80;42.80
78297;DHT22;67555;47.660;19.622;2023-03-31T12:00:19;20.90;43.00
78297;DHT22;67555;47.660;19.622;2023-03-31T12:03:12;21.10;43.40
78297;DHT22;67555;47.660;19.622;2023-03-31T12:05:43;21.20;42.50
78297;DHT22;67555;47.660;19.622;2023-03-31T12:10:54;21.30;41.80
78297;DHT22;67555;47.660;19.622;2023-03-31T12:16:22;21.40;41.20
78297;DHT22;67555;47.660;19.622;2023-03-31T12:19:03;21.40;41.00
78297;DHT22;67555;47.660;19.622;2023-03-31T12:21:31;21.10;40.90
78297;DHT22;67555;47.660;19.622;2023-03-31T12:23:59;21.00;41.20
78297;DHT22;67555;47.660;19.622;2023-03-31T12:26:49;20.80;41.60
78297;DHT22;67555;47.660;19.622;2023-03-31T12:29:35;20.70;42.20
78297;DHT22;67555;47.660;19.622;2023-03-31T12:32:09;20.70;42.40
78297;DHT22;67555;47.660;19.622;2023-03-31T12:34:42;20.80;42.50
78297;DHT22;67555;47.660;19.622;2023-03-31T12:37:17;21.10;42.30
78297;DHT22;67555;47.660;19.622;2023-03-31T12:45:27;21.10;42.60
78297;DHT22;67555;47.660;19.622;2023-03-31T12:59:43;21.70;41.50
78297;DHT22;67555;47.660;19.622;2023-03-31T13:04:41;21.70;41.80
78297;DHT22;67555;47.660;19.622;2023-03-31T13:09:56;22.00;41.80
78297;DHT22;67555;47.660;19.622;2023-03-31T13:12:24;22.10;41.90
78297;DHT22;67555;47.660;19.622;2023-03-31T13:14:53;22.20;41.80
78297;DHT22;67555;47.660;19.622;2023-03-31T13:17:31;22.30;42.00
78297;DHT22;67555;47.660;19.622;2023-03-31T13:20:58;22.30;42.00
78297;DHT22;67555;47.660;19.622;2023-03-31T13:23:18;22.30;42.00
78297;DHT22;67555;47.660;19.622;2023-03-31T13:25:45;22.20;42.30
78297;DHT22;67555;47.660;19.622;2023-03-31T13:30:59;21.90;42.80
78297;DHT22;67555;47.660;19.622;2023-03-31T13:39:16;21.50;43.10
78297;DHT22;67555;47.660;19.622;2023-03-31T14:07:05;21.40;43.80
78297;DHT22;67555;47.660;19.622;2023-03-31T14:09:42;21.20;43.60
78297;DHT22;67555;47.660;19.622;2023-03-31T14:12:31;20.90;43.20
78297;DHT22;67555;47.660;19.622;2023-03-31T14:14:57;20.60;43.60
78297;DHT22;67555;47.660;19.622;2023-03-31T14:17:30;20.40;44.20
78297;DHT22;67555;47.660;19.622;2023-03-31T14:20:25;20.10;44.90
78297;DHT22;67555;47.660;19.622;2023-03-31T14:25:45;19.90;46.20
78297;DHT22;67555;47.660;19.622;2023-03-31T14:31:04;20.10;46.60
78297;DHT22;67555;47.660;19.622;2023-03-31T14:36:34;20.40;46.50
78297;DHT22;67555;47.660;19.622;2023-03-31T14:39:05;20.30;46.60
78297;DHT22;67555;47.660;19.622;2023-03-31T14:41:32;20.30;46.80
78297;DHT22;67555;47.660;19.622;2023-03-31T14:44:00;20.30;46.90
78297;DHT22;67555;47.660;19.622;2023-03-31T14:46:30;20.10;47.10
78297;DHT22;67555;47.660;19.622;2023-03-31T14:49:38;20.00;47.40
78297;DHT22;67555;47.660;19.622;2023-03-31T14:52:03;19.90;47.60
78297;DHT22;67555;47.660;19.622;2023-03-31T14:54:36;19.70;48.00
78297;DHT22;67555;47.660;19.622;2023-03-31T14:57:03;19.60;48.50
78297;DHT22;67555;47.660;19.622;2023-03-31T14:59:31;19.50;48.80
78297;DHT22;67555;47.660;19.622;2023-03-31T15:02:00;19.40;48.90
78297;DHT22;67555;47.660;19.622;2023-03-31T15:04:30;19.20;48.90
78297;DHT22;67555;47.660;19.622;2023-03-31T15:07:00;19.10;48.90
78297;DHT22;67555;47.660;19.622;2023-03-31T15:09:29;19.10;49.00
78297;DHT22;67555;47.660;19.622;2023-03-31T15:12:01;19.10;49.30
78297;DHT22;67555;47.660;19.622;2023-03-31T15:14:34;19.10;49.40
78297;DHT22;67555;47.660;19.622;2023-03-31T15:17:00;19.20;49.50
78297;DHT22;67555;47.660;19.622;2023-03-31T15:19:34;19.20;49.50
78297;DHT22;67555;47.660;19.622;2023-03-31T15:22:16;19.20;49.50
78297;DHT22;67555;47.660;19.622;2023-03-31T15:24:45;19.40;49.60
78297;DHT22;67555;47.660;19.622;2023-03-31T15:29:44;19.50;49.60
78297;DHT22;67555;47.660;19.622;2023-03-31T15:32:24;19.50;49.40
78297;DHT22;67555;47.660;19.622;2023-03-31T15:34:51;19.40;49.60
78297;DHT22;67555;47.660;19.622;2023-03-31T15:37:24;19.30;49.80
78297;DHT22;67555;47.660;19.622;2023-03-31T15:39:55;19.30;50.00
78297;DHT22;67555;47.660;19.622;2023-03-31T15:42:23;19.20;50.00
78297;DHT22;67555;47.660;19.622;2023-03-31T15:47:50;19.20;50.00
78297;DHT22;67555;47.660;19.622;2023-03-31T15:50:17;19.20;50.20
78297;DHT22;67555;47.660;19.622;2023-03-31T15:52:51;19.20;50.30
78297;DHT22;67555;47.660;19.622;2023-03-31T15:55:38;19.10;50.40
78297;DHT22;67555;47.660;19.622;2023-03-31T15:58:04;19.10;50.70
78297;DHT22;67555;47.660;19.622;2023-03-31T16:03:04;19.10;50.80
78297;DHT22;67555;47.660;19.622;2023-03-31T16:05:40;18.90;51.10
78297;DHT22;67555;47.660;19.622;2023-03-31T16:08:36;18.80;51.40
78297;DHT22;67555;47.660;19.622;2023-03-31T16:11:17;18.60;51.80
78297;DHT22;67555;47.660;19.622;2023-03-31T16:13:47;18.50;52.20
78297;DHT22;67555;47.660;19.622;2023-03-31T16:16:17;18.30;52.50
78297;DHT22;67555;47.660;19.622;2023-03-31T16:18:50;18.10;52.60
78297;DHT22;67555;47.660;19.622;2023-03-31T16:21:27;17.90;52.60
78297;DHT22;67555;47.660;19.622;2023-03-31T16:23:56;17.80;52.70
78297;DHT22;67555;47.660;19.622;2023-03-31T16:26:24;17.60;52.80
78297;DHT22;67555;47.660;19.622;2023-03-31T16:28:54;17.50;53.00
78297;DHT22;67555;47.660;19.622;2023-03-31T16:31:39;17.30;53.20
78297;DHT22;67555;47.660;19.622;2023-03-31T16:34:09;17.20;53.40
78297;DHT22;67555;47.660;19.622;2023-03-31T16:36:36;17.10;53.50
78297;DHT22;67555;47.660;19.622;2023-03-31T16:39:04;17.00;53.60
78297;DHT22;67555;47.660;19.622;2023-03-31T16:41:34;17.00;53.80
78297;DHT22;67555;47.660;19.622;2023-03-31T16:44:01;16.90;54.00
78297;DHT22;67555;47.660;19.622;2023-03-31T16:46:28;16.80;54.00
78297;DHT22;67555;47.660;19.622;2023-03-31T16:48:54;16.80;54.10
78297;DHT22;67555;47.660;19.622;2023-03-31T16:51:20;16.80;54.00
78297;DHT22;67555;47.660;19.622;2023-03-31T16:53:46;16.80;53.90
78297;DHT22;67555;47.660;19.622;2023-03-31T16:56:13;16.70;53.70
78297;DHT22;67555;47.660;19.622;2023-03-31T16:58:40;16.70;53.50
78297;DHT22;67555;47.660;19.622;2023-03-31T17:01:07;16.70;53.40
78297;DHT22;67555;47.660;19.622;2023-03-31T17:03:34;16.60;53.30
78297;DHT22;67555;47.660;19.622;2023-03-31T17:06:07;16.60;53.20
78297;DHT22;67555;47.660;19.622;2023-03-31T17:08:34;16.50;53.20
78297;DHT22;67555;47.660;19.622;2023-03-31T17:11:13;16.50;53.10
78297;DHT22;67555;47.660;19.622;2023-03-31T17:13:40;16.40;53.00
78297;DHT22;67555;47.660;19.622;2023-03-31T17:16:07;16.40;52.90
78297;DHT22;67555;47.660;19.622;2023-03-31T17:18:33;16.30;52.80
78297;DHT22;67555;47.660;19.622;2023-03-31T17:21:07;16.20;52.80
78297;DHT22;67555;47.660;19.622;2023-03-31T17:23:33;16.20;52.90
78297;DHT22;67555;47.660;19.622;2023-03-31T17:26:00;16.20;53.00
78297;DHT22;67555;47.660;19.622;2023-03-31T17:28:26;16.10;53.10
78297;DHT22;67555;47.660;19.622;2023-03-31T17:30:53;16.00;53.10
78297;DHT22;67555;47.660;19.622;2023-03-31T17:33:19;16.00;53.10
78297;DHT22;67555;47.660;19.622;2023-03-31T17:35:47;15.90;53.20
78297;DHT22;67555;47.660;19.622;2023-03-31T17:38:13;15.80;53.30
78297;DHT22;67555;47.660;19.622;2023-03-31T17:40:39;15.80;53.40
78297;DHT22;67555;47.660;19.622;2023-03-31T17:43:05;15.70;53.70
78297;DHT22;67555;47.660;19.622;2023-03-31T17:45:32;15.60;53.80
78297;DHT22;67555;47.660;19.622;2023-03-31T17:47:58;15.60;53.80
78297;DHT22;67555;47.660;19.622;2023-03-31T17:50:25;15.60;53.90
78297;DHT22;67555;47.660;19.622;2023-03-31T17:52:52;15.50;53.90
78297;DHT22;67555;47.660;19.622;2023-03-31T17:55:18;15.50;54.00
78297;DHT22;67555;47.660;19.622;2023-03-31T17:57:44;15.50;54.10
78297;DHT22;67555;47.660;19.622;2023-03-31T18:00:11;15.50;54.20
78297;DHT22;67555;47.660;19.622;2023-03-31T18:02:40;15.40;54.20
78297;DHT22;67555;47.660;19.622;2023-03-31T18:05:07;15.40;54.30
78297;DHT22;67555;47.660;19.622;2023-03-31T18:07:35;15.40;54.40
78297;DHT22;67555;47.660;19.622;2023-03-31T18:10:02;15.30;54.50
78297;DHT22;67555;47.660;19.622;2023-03-31T18:12:31;15.30;54.60
78297;DHT22;67555;47.660;19.622;2023-03-31T18:14:57;15.30;54.70
78297;DHT22;67555;47.660;19.622;2023-03-31T18:17:23;15.30;54.70
78297;DHT22;67555;47.660;19.622;2023-03-31T18:19:49;15.30;54.80
78297;DHT22;67555;47.660;19.622;2023-03-31T18:22:16;15.30;54.90
78297;DHT22;67555;47.660;19.622;2023-03-31T18:24:42;15.30;55.00
78297;DHT22;67555;47.660;19.622;2023-03-31T18:27:09;15.30;55.00
78297;DHT22;67555;47.660;19.622;2023-03-31T18:29:35;15.20;55.10
78297;DHT22;67555;47.660;19.622;2023-03-31T18:32:01;15.20;55.20
78297;DHT22;67555;47.660;19.622;2023-03-31T18:34:27;15.20;55.30
78297;DHT22;67555;47.660;19.622;2023-03-31T18:36:53;15.20;55.40
78297;DHT22;67555;47.660;19.622;2023-03-31T18:39:19;15.20;55.40
78297;DHT22;67555;47.660;19.622;2023-03-31T18:41:47;15.20;55.40
78297;DHT22;67555;47.660;19.622;2023-03-31T18:44:13;15.20;55.50
78297;DHT22;67555;47.660;19.622;2023-03-31T18:46:44;15.20;55.50